sensor_id;sensor_type;location;lat;lon;timestamp;P1;durP1;ratioP1;P2;durP2;ratioP2
25509;SDS011;13413;52.336;21.200;2023-04-24T00:02:02;13.20;;;8.40;;
25509;SDS011;13413;52.336;21.200;2023-04-24T00:04:56;12.40;;;9.50;;
25509;SDS011;13413;52.336;21.200;2023-04-24T00:07:56;11.10;;;8.50;;
25509;SDS011;13413;52.336;21.200;2023-04-24T00:10:50;13.80;;;9.00;;
25509;SDS011;13413;52.336;21.200;2023-04-24T00:13:44;14.30;;;9.20;;
25509;SDS011;13413;52.336;21.200;2023-04-24T00:16:38;9.60;;;8.50;;
25509;SDS011;13413;52.336;21.200;2023-04-24T00:19:32;13.80;;;8.50;;
25509;SDS011;13413;52.336;21.200;2023-04-24T00:22:26;12.80;;;9.00;;
25509;SDS011;13413;52.336;21.200;2023-04-24T00:25:19;18.50;;;8.70;;
25509;SDS011;13413;52.336;21.200;2023-04-24T00:28:13;11.30;;;8.30;;
25509;SDS011;13413;52.336;21.200;2023-04-24T00:31:07;12.30;;;8.60;;
25509;SDS011;13413;52.336;21.200;2023-04-24T00:34:02;14.30;;;8.90;;
25509;SDS011;13413;52.336;21.200;2023-04-24T00:39:49;11.50;;;8.90;;
25509;SDS011;13413;52.336;21.200;2023-04-24T00:42:44;12.30;;;8.60;;
25509;SDS011;13413;52.336;21.200;2023-04-24T00:45:38;14.50;;;9.70;;
25509;SDS011;13413;52.336;21.200;2023-04-24T00:51:26;24.10;;;14.10;;
25509;SDS011;13413;52.336;21.200;2023-04-24T00:54:20;62.00;;;29.50;;
25509;SDS011;13413;52.336;21.200;2023-04-24T00:57:14;27.80;;;13.20;;
25509;SDS011;13413;52.336;21.200;2023-04-24T01:00:10;21.80;;;13.30;;
25509;SDS011;13413;52.336;21.200;2023-04-24T01:03:07;61.90;;;29.40;;
25509;SDS011;13413;52.336;21.200;2023-04-24T01:06:01;23.60;;;14.10;;
25509;SDS011;13413;52.336;21.200;2023-04-24T01:08:57;15.10;;;11.00;;
25509;SDS011;13413;52.336;21.200;2023-04-24T01:14:46;41.30;;;21.70;;
25509;SDS011;13413;52.336;21.200;2023-04-24T01:17:39;25.00;;;14.50;;
25509;SDS011;13413;52.336;21.200;2023-04-24T01:20:33;18.90;;;12.00;;
25509;SDS011;13413;52.336;21.200;2023-04-24T01:23:28;15.00;;;11.00;;
25509;SDS011;13413;52.336;21.200;2023-04-24T01:26:23;25.60;;;13.40;;
25509;SDS011;13413;52.336;21.200;2023-04-24T01:29:17;15.40;;;11.10;;
25509;SDS011;13413;52.336;21.200;2023-04-24T01:32:10;12.40;;;9.40;;
25509;SDS011;13413;52.336;21.200;2023-04-24T01:35:07;33.20;;;19.40;;
25509;SDS011;13413;52.336;21.200;2023-04-24T01:38:01;32.90;;;19.50;;
25509;SDS011;13413;52.336;21.200;2023-04-24T01:43:48;22.50;;;12.90;;
25509;SDS011;13413;52.336;21.200;2023-04-24T01:49:36;14.90;;;10.60;;
25509;SDS011;13413;52.336;21.200;2023-04-24T01:52:31;15.00;;;11.10;;
25509;SDS011;13413;52.336;21.200;2023-04-24T01:55:25;22.70;;;12.40;;
25509;SDS011;13413;52.336;21.200;2023-04-24T01:58:20;21.80;;;12.60;;
25509;SDS011;13413;52.336;21.200;2023-04-24T02:09:54;25.10;;;14.90;;
25509;SDS011;13413;52.336;21.200;2023-04-24T02:12:48;20.00;;;13.60;;
25509;SDS011;13413;52.336;21.200;2023-04-24T02:15:42;16.20;;;11.50;;
25509;SDS011;13413;52.336;21.200;2023-04-24T02:18:36;17.20;;;11.20;;
25509;SDS011;13413;52.336;21.200;2023-04-24T02:21:30;17.20;;;10.90;;
25509;SDS011;13413;52.336;21.200;2023-04-24T02:24:24;12.90;;;9.80;;
25509;SDS011;13413;52.336;21.200;2023-04-24T02:27:19;12.70;;;10.30;;
25509;SDS011;13413;52.336;21.200;2023-04-24T02:30:13;14.50;;;10.50;;
25509;SDS011;13413;52.336;21.200;2023-04-24T02:33:07;12.90;;;9.80;;
25509;SDS011;13413;52.336;21.200;2023-04-24T02:36:01;15.20;;;9.80;;
25509;SDS011;13413;52.336;21.200;2023-04-24T02:38:55;16.90;;;10.90;;
25509;SDS011;13413;52.336;21.200;2023-04-24T02:41:49;15.70;;;9.80;;
25509;SDS011;13413;52.336;21.200;2023-04-24T02:44:45;15.80;;;10.30;;
25509;SDS011;13413;52.336;21.200;2023-04-24T02:47:39;15.50;;;10.80;;
25509;SDS011;13413;52.336;21.200;2023-04-24T02:50:33;14.90;;;10.40;;
25509;SDS011;13413;52.336;21.200;2023-04-24T02:53:27;16.50;;;10.50;;
25509;SDS011;13413;52.336;21.200;2023-04-24T02:56:21;13.80;;;10.30;;
25509;SDS011;13413;52.336;21.200;2023-04-24T02:59:15;18.30;;;11.00;;
25509;SDS011;13413;52.336;21.200;2023-04-24T03:02:09;14.00;;;9.80;;
25509;SDS011;13413;52.336;21.200;2023-04-24T03:05:03;40.00;;;11.00;;
25509;SDS011;13413;52.336;21.200;2023-04-24T03:07:59;21.10;;;10.80;;
25509;SDS011;13413;52.336;21.200;2023-04-24T03:10:53;13.80;;;9.90;;
25509;SDS011;13413;52.336;21.200;2023-04-24T03:13:47;13.90;;;10.20;;
25509;SDS011;13413;52.336;21.200;2023-04-24T03:16:41;35.70;;;12.00;;
25509;SDS011;13413;52.336;21.200;2023-04-24T03:19:36;20.20;;;11.70;;
25509;SDS011;13413;52.336;21.200;2023-04-24T03:22:30;24.30;;;11.30;;
25509;SDS011;13413;52.336;21.200;2023-04-24T03:25:24;17.10;;;10.70;;
25509;SDS011;13413;52.336;21.200;2023-04-24T03:28:18;36.20;;;11.00;;
25509;SDS011;13413;52.336;21.200;2023-04-24T03:31:12;29.00;;;12.30;;
25509;SDS011;13413;52.336;21.200;2023-04-24T03:34:06;18.60;;;11.70;;
25509;SDS011;13413;52.336;21.200;2023-04-24T03:37:00;17.20;;;10.20;;
25509;SDS011;13413;52.336;21.200;2023-04-24T03:39:54;13.90;;;11.20;;
25509;SDS011;13413;52.336;21.200;2023-04-24T03:42:48;15.10;;;11.80;;
25509;SDS011;13413;52.336;21.200;2023-04-24T03:45:42;18.00;;;11.40;;
25509;SDS011;13413;52.336;21.200;2023-04-24T03:48:36;14.30;;;11.90;;
25509;SDS011;13413;52.336;21.200;2023-04-24T03:51:30;16.50;;;10.90;;
25509;SDS011;13413;52.336;21.200;2023-04-24T03:54:24;16.00;;;10.90;;
25509;SDS011;13413;52.336;21.200;2023-04-24T03:57:18;16.90;;;10.20;;
25509;SDS011;13413;52.336;21.200;2023-04-24T04:00:13;17.40;;;10.60;;
25509;SDS011;13413;52.336;21.200;2023-04-24T04:03:08;14.20;;;11.10;;
25509;SDS011;13413;52.336;21.200;2023-04-24T04:06:02;14.50;;;10.50;;
25509;SDS011;13413;52.336;21.200;2023-04-24T04:08:56;17.60;;;11.00;;
25509;SDS011;13413;52.336;21.200;2023-04-24T04:11:51;22.60;;;12.10;;
25509;SDS011;13413;52.336;21.200;2023-04-24T04:14:45;27.00;;;11.40;;
25509;SDS011;13413;52.336;21.200;2023-04-24T04:17:39;18.10;;;11.10;;
25509;SDS011;13413;52.336;21.200;2023-04-24T04:31:52;17.30;;;12.00;;
25509;SDS011;13413;52.336;21.200;2023-04-24T04:34:46;17.80;;;12.20;;
25509;SDS011;13413;52.336;21.200;2023-04-24T04:37:40;18.20;;;12.50;;
25509;SDS011;13413;52.336;21.200;2023-04-24T04:40:34;23.90;;;13.00;;
25509;SDS011;13413;52.336;21.200;2023-04-24T04:43:28;23.80;;;13.30;;
25509;SDS011;13413;52.336;21.200;2023-04-24T04:46:23;20.40;;;12.90;;
25509;SDS011;13413;52.336;21.200;2023-04-24T04:49:17;26.90;;;13.10;;
25509;SDS011;13413;52.336;21.200;2023-04-24T04:52:11;18.20;;;11.80;;
25509;SDS011;13413;52.336;21.200;2023-04-24T04:55:06;14.00;;;11.70;;
25509;SDS011;13413;52.336;21.200;2023-04-24T04:58:01;18.20;;;11.50;;
25509;SDS011;13413;52.336;21.200;2023-04-24T05:00:56;19.70;;;11.80;;
25509;SDS011;13413;52.336;21.200;2023-04-24T05:03:50;18.00;;;11.50;;
25509;SDS011;13413;52.336;21.200;2023-04-24T05:06:44;16.60;;;11.60;;
25509;SDS011;13413;52.336;21.200;2023-04-24T05:09:38;15.90;;;11.50;;
25509;SDS011;13413;52.336;21.200;2023-04-24T05:12:32;19.80;;;12.10;;
25509;SDS011;13413;52.336;21.200;2023-04-24T05:15:26;19.90;;;12.40;;
25509;SDS011;13413;52.336;21.200;2023-04-24T05:21:13;19.20;;;12.30;;
25509;SDS011;13413;52.336;21.200;2023-04-24T05:24:07;14.40;;;11.40;;
25509;SDS011;13413;52.336;21.200;2023-04-24T05:27:01;15.70;;;11.10;;
25509;SDS011;13413;52.336;21.200;2023-04-24T05:32:49;15.20;;;11.30;;
25509;SDS011;13413;52.336;21.200;2023-04-24T05:35:43;13.80;;;11.50;;
25509;SDS011;13413;52.336;21.200;2023-04-24T05:38:37;23.00;;;12.00;;
25509;SDS011;13413;52.336;21.200;2023-04-24T05:41:31;18.00;;;11.30;;
25509;SDS011;13413;52.336;21.200;2023-04-24T05:44:25;15.20;;;9.90;;
25509;SDS011;13413;52.336;21.200;2023-04-24T05:47:19;14.40;;;11.00;;
25509;SDS011;13413;52.336;21.200;2023-04-24T05:50:13;21.10;;;12.00;;
25509;SDS011;13413;52.336;21.200;2023-04-24T05:53:07;26.30;;;12.80;;
25509;SDS011;13413;52.336;21.200;2023-04-24T05:56:01;16.00;;;11.20;;
25509;SDS011;13413;52.336;21.200;2023-04-24T05:58:55;17.10;;;11.40;;
25509;SDS011;13413;52.336;21.200;2023-04-24T06:01:49;14.50;;;10.80;;
25509;SDS011;13413;52.336;21.200;2023-04-24T06:04:43;14.10;;;10.90;;
25509;SDS011;13413;52.336;21.200;2023-04-24T06:07:37;13.40;;;10.90;;
25509;SDS011;13413;52.336;21.200;2023-04-24T06:10:31;11.50;;;10.10;;
25509;SDS011;13413;52.336;21.200;2023-04-24T06:13:25;12.20;;;10.20;;
25509;SDS011;13413;52.336;21.200;2023-04-24T06:16:20;15.60;;;10.90;;
25509;SDS011;13413;52.336;21.200;2023-04-24T06:19:14;14.60;;;10.70;;
25509;SDS011;13413;52.336;21.200;2023-04-24T06:22:08;17.30;;;10.70;;
25509;SDS011;13413;52.336;21.200;2023-04-24T06:25:03;17.10;;;10.80;;
25509;SDS011;13413;52.336;21.200;2023-04-24T06:27:58;14.20;;;10.70;;
25509;SDS011;13413;52.336;21.200;2023-04-24T06:30:52;16.40;;;10.40;;
25509;SDS011;13413;52.336;21.200;2023-04-24T06:33:46;23.50;;;9.70;;
25509;SDS011;13413;52.336;21.200;2023-04-24T06:36:41;14.90;;;9.40;;
25509;SDS011;13413;52.336;21.200;2023-04-24T06:39:35;19.20;;;9.60;;
25509;SDS011;13413;52.336;21.200;2023-04-24T06:48:22;16.30;;;9.70;;
25509;SDS011;13413;52.336;21.200;2023-04-24T06:51:15;17.90;;;10.30;;
25509;SDS011;13413;52.336;21.200;2023-04-24T06:54:08;18.70;;;9.70;;
25509;SDS011;13413;52.336;21.200;2023-04-24T06:57:00;12.60;;;10.20;;
25509;SDS011;13413;52.336;21.200;2023-04-24T06:59:53;19.30;;;10.90;;
25509;SDS011;13413;52.336;21.200;2023-04-24T07:02:45;18.40;;;10.30;;
25509;SDS011;13413;52.336;21.200;2023-04-24T07:08:45;19.40;;;9.50;;
25509;SDS011;13413;52.336;21.200;2023-04-24T07:14:30;14.50;;;10.10;;
25509;SDS011;13413;52.336;21.200;2023-04-24T07:17:24;15.40;;;8.70;;
25509;SDS011;13413;52.336;21.200;2023-04-24T07:20:16;19.20;;;9.70;;
25509;SDS011;13413;52.336;21.200;2023-04-24T07:23:08;14.50;;;10.60;;
25509;SDS011;13413;52.336;21.200;2023-04-24T07:26:00;19.80;;;9.50;;
25509;SDS011;13413;52.336;21.200;2023-04-24T07:28:54;11.20;;;9.40;;
25509;SDS011;13413;52.336;21.200;2023-04-24T07:31:47;13.70;;;8.80;;
25509;SDS011;13413;52.336;21.200;2023-04-24T07:34:39;14.20;;;9.60;;
25509;SDS011;13413;52.336;21.200;2023-04-24T07:37:31;9.80;;;8.30;;
25509;SDS011;13413;52.336;21.200;2023-04-24T07:40:23;12.70;;;8.90;;
25509;SDS011;13413;52.336;21.200;2023-04-24T07:43:16;14.10;;;9.20;;
25509;SDS011;13413;52.336;21.200;2023-04-24T07:46:10;14.90;;;8.30;;
25509;SDS011;13413;52.336;21.200;2023-04-24T07:49:03;13.10;;;9.60;;
25509;SDS011;13413;52.336;21.200;2023-04-24T07:51:56;37.00;;;11.50;;
25509;SDS011;13413;52.336;21.200;2023-04-24T07:54:48;12.60;;;8.20;;
25509;SDS011;13413;52.336;21.200;2023-04-24T07:57:41;32.70;;;9.50;;
25509;SDS011;13413;52.336;21.200;2023-04-24T08:00:34;14.10;;;8.20;;
25509;SDS011;13413;52.336;21.200;2023-04-24T08:03:27;15.60;;;8.10;;
25509;SDS011;13413;52.336;21.200;2023-04-24T08:06:20;10.60;;;8.20;;
25509;SDS011;13413;52.336;21.200;2023-04-24T08:09:13;13.90;;;8.10;;
25509;SDS011;13413;52.336;21.200;2023-04-24T08:12:06;13.50;;;8.50;;
25509;SDS011;13413;52.336;21.200;2023-04-24T08:14:58;13.40;;;7.80;;
25509;SDS011;13413;52.336;21.200;2023-04-24T08:17:52;9.50;;;7.60;;
25509;SDS011;13413;52.336;21.200;2023-04-24T08:20:45;10.40;;;7.30;;
25509;SDS011;13413;52.336;21.200;2023-04-24T08:23:38;14.80;;;7.80;;
25509;SDS011;13413;52.336;21.200;2023-04-24T08:26:31;11.90;;;6.90;;
25509;SDS011;13413;52.336;21.200;2023-04-24T08:29:24;12.20;;;7.20;;
25509;SDS011;13413;52.336;21.200;2023-04-24T08:32:17;11.20;;;7.50;;
25509;SDS011;13413;52.336;21.200;2023-04-24T08:43:34;11.40;;;7.20;;
25509;SDS011;13413;52.336;21.200;2023-04-24T08:46:31;10.80;;;6.80;;
25509;SDS011;13413;52.336;21.200;2023-04-24T08:49:25;12.50;;;7.30;;
25509;SDS011;13413;52.336;21.200;2023-04-24T08:52:21;11.00;;;6.70;;
25509;SDS011;13413;52.336;21.200;2023-04-24T08:55:15;8.60;;;7.40;;
25509;SDS011;13413;52.336;21.200;2023-04-24T08:58:10;12.40;;;7.10;;
25509;SDS011;13413;52.336;21.200;2023-04-24T09:01:04;7.20;;;6.40;;
25509;SDS011;13413;52.336;21.200;2023-04-24T09:06:55;7.60;;;6.40;;
25509;SDS011;13413;52.336;21.200;2023-04-24T09:09:49;10.30;;;6.70;;
25509;SDS011;13413;52.336;21.200;2023-04-24T09:12:44;13.10;;;6.60;;
25509;SDS011;13413;52.336;21.200;2023-04-24T09:18:31;11.90;;;6.20;;
25509;SDS011;13413;52.336;21.200;2023-04-24T09:21:30;10.10;;;6.40;;
25509;SDS011;13413;52.336;21.200;2023-04-24T09:24:26;11.10;;;7.30;;
25509;SDS011;13413;52.336;21.200;2023-04-24T09:27:20;7.60;;;6.20;;
25509;SDS011;13413;52.336;21.200;2023-04-24T09:30:17;7.30;;;6.40;;
25509;SDS011;13413;52.336;21.200;2023-04-24T09:33:15;11.70;;;6.40;;
25509;SDS011;13413;52.336;21.200;2023-04-24T09:36:09;7.50;;;6.30;;
25509;SDS011;13413;52.336;21.200;2023-04-24T09:39:04;9.10;;;6.40;;
25509;SDS011;13413;52.336;21.200;2023-04-24T09:42:00;14.70;;;7.10;;
25509;SDS011;13413;52.336;21.200;2023-04-24T09:47:50;11.10;;;6.60;;
25509;SDS011;13413;52.336;21.200;2023-04-24T09:50:47;9.10;;;6.60;;
25509;SDS011;13413;52.336;21.200;2023-04-24T09:53:46;11.30;;;6.80;;
25509;SDS011;13413;52.336;21.200;2023-04-24T09:56:45;9.50;;;6.60;;
25509;SDS011;13413;52.336;21.200;2023-04-24T09:59:45;10.40;;;6.30;;
25509;SDS011;13413;52.336;21.200;2023-04-24T10:02:39;8.80;;;7.20;;
25509;SDS011;13413;52.336;21.200;2023-04-24T10:05:34;9.50;;;7.20;;
25509;SDS011;13413;52.336;21.200;2023-04-24T10:08:34;11.70;;;7.50;;
25509;SDS011;13413;52.336;21.200;2023-04-24T10:11:29;15.00;;;10.00;;
25509;SDS011;13413;52.336;21.200;2023-04-24T10:14:23;16.90;;;8.40;;
25509;SDS011;13413;52.336;21.200;2023-04-24T10:23:20;15.90;;;7.60;;
25509;SDS011;13413;52.336;21.200;2023-04-24T10:29:21;11.50;;;7.50;;
25509;SDS011;13413;52.336;21.200;2023-04-24T10:35:22;8.10;;;6.40;;
25509;SDS011;13413;52.336;21.200;2023-04-24T10:38:18;9.90;;;6.10;;
25509;SDS011;13413;52.336;21.200;2023-04-24T10:41:17;6.90;;;5.50;;
25509;SDS011;13413;52.336;21.200;2023-04-24T10:44:12;9.00;;;5.90;;
25509;SDS011;13413;52.336;21.200;2023-04-24T10:47:07;9.70;;;5.90;;
25509;SDS011;13413;52.336;21.200;2023-04-24T10:50:09;20.20;;;6.30;;
25509;SDS011;13413;52.336;21.200;2023-04-24T11:02:03;8.10;;;5.90;;
25509;SDS011;13413;52.336;21.200;2023-04-24T11:05:00;9.60;;;6.80;;
25509;SDS011;13413;52.336;21.200;2023-04-24T11:08:15;8.40;;;6.00;;
25509;SDS011;13413;52.336;21.200;2023-04-24T11:11:15;9.70;;;6.90;;
25509;SDS011;13413;52.336;21.200;2023-04-24T11:14:10;11.00;;;7.00;;
25509;SDS011;13413;52.336;21.200;2023-04-24T11:17:06;8.40;;;6.60;;
25509;SDS011;13413;52.336;21.200;2023-04-24T11:20:03;9.60;;;7.10;;
25509;SDS011;13413;52.336;21.200;2023-04-24T11:23:03;13.70;;;7.80;;
25509;SDS011;13413;52.336;21.200;2023-04-24T11:26:11;13.20;;;6.60;;
25509;SDS011;13413;52.336;21.200;2023-04-24T11:29:10;11.40;;;7.60;;
25509;SDS011;13413;52.336;21.200;2023-04-24T11:32:13;10.40;;;7.30;;
25509;SDS011;13413;52.336;21.200;2023-04-24T11:35:10;14.80;;;8.20;;
25509;SDS011;13413;52.336;21.200;2023-04-24T11:38:07;10.20;;;6.50;;
25509;SDS011;13413;52.336;21.200;2023-04-24T11:41:03;9.30;;;6.00;;
25509;SDS011;13413;52.336;21.200;2023-04-24T11:43:58;10.80;;;6.10;;
25509;SDS011;13413;52.336;21.200;2023-04-24T11:46:56;7.80;;;6.00;;
25509;SDS011;13413;52.336;21.200;2023-04-24T11:49:51;6.30;;;5.60;;
25509;SDS011;13413;52.336;21.200;2023-04-24T11:52:46;12.60;;;6.60;;
25509;SDS011;13413;52.336;21.200;2023-04-24T11:58:36;7.80;;;6.20;;
25509;SDS011;13413;52.336;21.200;2023-04-24T12:04:41;15.70;;;7.00;;
25509;SDS011;13413;52.336;21.200;2023-04-24T12:07:41;36.30;;;8.10;;
25509;SDS011;13413;52.336;21.200;2023-04-24T12:10:35;15.80;;;6.40;;
25509;SDS011;13413;52.336;21.200;2023-04-24T12:13:30;15.80;;;6.30;;
25509;SDS011;13413;52.336;21.200;2023-04-24T12:16:24;11.10;;;6.10;;
25509;SDS011;13413;52.336;21.200;2023-04-24T12:19:20;10.40;;;6.30;;
25509;SDS011;13413;52.336;21.200;2023-04-24T12:22:14;8.70;;;5.90;;
25509;SDS011;13413;52.336;21.200;2023-04-24T12:25:09;17.80;;;6.50;;
25509;SDS011;13413;52.336;21.200;2023-04-24T12:28:11;9.40;;;5.40;;
25509;SDS011;13413;52.336;21.200;2023-04-24T12:31:05;17.60;;;7.00;;
25509;SDS011;13413;52.336;21.200;2023-04-24T12:33:59;8.80;;;6.10;;
25509;SDS011;13413;52.336;21.200;2023-04-24T12:36:53;22.40;;;6.40;;
25509;SDS011;13413;52.336;21.200;2023-04-24T12:40:00;10.90;;;6.60;;
25509;SDS011;13413;52.336;21.200;2023-04-24T12:42:56;9.90;;;6.10;;
25509;SDS011;13413;52.336;21.200;2023-04-24T12:45:49;11.00;;;5.70;;
25509;SDS011;13413;52.336;21.200;2023-04-24T12:48:43;24.20;;;7.30;;
25509;SDS011;13413;52.336;21.200;2023-04-24T12:51:37;7.10;;;5.00;;
25509;SDS011;13413;52.336;21.200;2023-04-24T12:54:33;13.60;;;6.00;;
25509;SDS011;13413;52.336;21.200;2023-04-24T12:57:28;17.10;;;5.90;;
25509;SDS011;13413;52.336;21.200;2023-04-24T13:00:23;15.50;;;6.40;;
25509;SDS011;13413;52.336;21.200;2023-04-24T13:03:16;12.30;;;5.30;;
25509;SDS011;13413;52.336;21.200;2023-04-24T13:06:11;39.90;;;9.90;;
25509;SDS011;13413;52.336;21.200;2023-04-24T13:09:04;10.10;;;5.20;;
25509;SDS011;13413;52.336;21.200;2023-04-24T13:11:59;3.90;;;3.60;;
25509;SDS011;13413;52.336;21.200;2023-04-24T13:17:38;8.70;;;5.40;;
25509;SDS011;13413;52.336;21.200;2023-04-24T13:20:32;12.00;;;5.10;;
25509;SDS011;13413;52.336;21.200;2023-04-24T13:26:20;8.90;;;5.30;;
25509;SDS011;13413;52.336;21.200;2023-04-24T13:29:14;12.70;;;5.20;;
25509;SDS011;13413;52.336;21.200;2023-04-24T13:32:08;15.80;;;6.10;;
25509;SDS011;13413;52.336;21.200;2023-04-24T13:35:03;17.90;;;5.80;;
25509;SDS011;13413;52.336;21.200;2023-04-24T13:37:58;18.00;;;6.00;;
25509;SDS011;13413;52.336;21.200;2023-04-24T13:40:52;14.90;;;6.40;;
25509;SDS011;13413;52.336;21.200;2023-04-24T13:43:50;10.50;;;5.80;;
25509;SDS011;13413;52.336;21.200;2023-04-24T13:46:44;8.40;;;5.40;;
25509;SDS011;13413;52.336;21.200;2023-04-24T13:49:40;8.00;;;5.60;;
25509;SDS011;13413;52.336;21.200;2023-04-24T13:52:34;11.40;;;5.90;;
25509;SDS011;13413;52.336;21.200;2023-04-24T13:55:28;8.50;;;5.60;;
25509;SDS011;13413;52.336;21.200;2023-04-24T13:58:21;5.90;;;5.10;;
25509;SDS011;13413;52.336;21.200;2023-04-24T14:01:16;10.20;;;5.70;;
25509;SDS011;13413;52.336;21.200;2023-04-24T14:04:10;9.50;;;5.30;;
25509;SDS011;13413;52.336;21.200;2023-04-24T14:07:04;6.20;;;4.30;;
25509;SDS011;13413;52.336;21.200;2023-04-24T14:09:58;7.60;;;5.30;;
25509;SDS011;13413;52.336;21.200;2023-04-24T14:12:53;6.80;;;4.70;;
25509;SDS011;13413;52.336;21.200;2023-04-24T14:15:47;5.00;;;4.40;;
25509;SDS011;13413;52.336;21.200;2023-04-24T14:18:42;5.10;;;4.60;;
25509;SDS011;13413;52.336;21.200;2023-04-24T14:21:36;6.40;;;5.10;;
25509;SDS011;13413;52.336;21.200;2023-04-24T14:24:30;5.60;;;4.50;;
25509;SDS011;13413;52.336;21.200;2023-04-24T14:27:25;7.60;;;4.80;;
25509;SDS011;13413;52.336;21.200;2023-04-24T14:30:20;8.50;;;4.50;;
25509;SDS011;13413;52.336;21.200;2023-04-24T14:33:14;7.60;;;4.80;;
25509;SDS011;13413;52.336;21.200;2023-04-24T14:36:08;5.00;;;4.50;;
25509;SDS011;13413;52.336;21.200;2023-04-24T14:39:01;10.30;;;5.10;;
25509;SDS011;13413;52.336;21.200;2023-04-24T14:41:56;9.30;;;4.70;;
25509;SDS011;13413;52.336;21.200;2023-04-24T14:44:50;11.30;;;5.20;;
25509;SDS011;13413;52.336;21.200;2023-04-24T14:47:43;11.80;;;6.00;;
25509;SDS011;13413;52.336;21.200;2023-04-24T14:50:38;10.10;;;5.50;;
25509;SDS011;13413;52.336;21.200;2023-04-24T14:53:31;8.10;;;5.30;;
25509;SDS011;13413;52.336;21.200;2023-04-24T14:56:26;14.30;;;5.40;;
25509;SDS011;13413;52.336;21.200;2023-04-24T14:59:20;6.10;;;4.60;;
25509;SDS011;13413;52.336;21.200;2023-04-24T15:02:14;11.30;;;5.70;;
25509;SDS011;13413;52.336;21.200;2023-04-24T15:05:08;20.60;;;6.00;;
25509;SDS011;13413;52.336;21.200;2023-04-24T15:11:10;10.80;;;6.40;;
25509;SDS011;13413;52.336;21.200;2023-04-24T15:16:56;8.50;;;5.80;;
25509;SDS011;13413;52.336;21.200;2023-04-24T15:19:51;23.00;;;7.40;;
25509;SDS011;13413;52.336;21.200;2023-04-24T15:22:46;22.20;;;7.80;;
25509;SDS011;13413;52.336;21.200;2023-04-24T15:25:40;10.60;;;6.70;;
25509;SDS011;13413;52.336;21.200;2023-04-24T15:28:34;5.50;;;4.90;;
25509;SDS011;13413;52.336;21.200;2023-04-24T15:37:32;18.30;;;5.40;;
25509;SDS011;13413;52.336;21.200;2023-04-24T15:40:27;7.90;;;4.40;;
25509;SDS011;13413;52.336;21.200;2023-04-24T15:43:21;6.90;;;4.50;;
25509;SDS011;13413;52.336;21.200;2023-04-24T15:46:15;12.80;;;4.90;;
25509;SDS011;13413;52.336;21.200;2023-04-24T15:49:11;4.70;;;4.20;;
25509;SDS011;13413;52.336;21.200;2023-04-24T15:52:06;6.50;;;4.30;;
25509;SDS011;13413;52.336;21.200;2023-04-24T15:55:00;7.30;;;5.00;;
25509;SDS011;13413;52.336;21.200;2023-04-24T15:57:55;4.80;;;4.30;;
25509;SDS011;13413;52.336;21.200;2023-04-24T16:00:49;6.20;;;4.60;;
25509;SDS011;13413;52.336;21.200;2023-04-24T16:03:43;7.30;;;4.30;;
25509;SDS011;13413;52.336;21.200;2023-04-24T16:06:37;8.10;;;4.10;;
25509;SDS011;13413;52.336;21.200;2023-04-24T16:12:25;11.60;;;4.50;;
25509;SDS011;13413;52.336;21.200;2023-04-24T16:15:19;5.50;;;4.50;;
25509;SDS011;13413;52.336;21.200;2023-04-24T16:18:13;8.30;;;4.40;;
25509;SDS011;13413;52.336;21.200;2023-04-24T16:21:09;8.40;;;5.40;;
25509;SDS011;13413;52.336;21.200;2023-04-24T16:24:03;5.40;;;4.70;;
25509;SDS011;13413;52.336;21.200;2023-04-24T16:26:58;8.50;;;4.50;;
25509;SDS011;13413;52.336;21.200;2023-04-24T16:29:52;5.70;;;4.20;;
25509;SDS011;13413;52.336;21.200;2023-04-24T16:32:46;14.00;;;4.40;;
25509;SDS011;13413;52.336;21.200;2023-04-24T16:35:40;8.20;;;4.50;;
25509;SDS011;13413;52.336;21.200;2023-04-24T16:38:34;6.80;;;5.10;;
25509;SDS011;13413;52.336;21.200;2023-04-24T16:41:28;5.40;;;4.00;;
25509;SDS011;13413;52.336;21.200;2023-04-24T16:44:22;6.50;;;5.30;;
25509;SDS011;13413;52.336;21.200;2023-04-24T16:47:16;7.30;;;5.30;;
25509;SDS011;13413;52.336;21.200;2023-04-24T16:50:11;12.10;;;5.70;;
25509;SDS011;13413;52.336;21.200;2023-04-24T16:55:58;7.50;;;4.70;;
25509;SDS011;13413;52.336;21.200;2023-04-24T16:58:52;7.30;;;4.80;;
25509;SDS011;13413;52.336;21.200;2023-04-24T17:01:46;8.30;;;5.70;;
25509;SDS011;13413;52.336;21.200;2023-04-24T17:04:40;7.30;;;5.30;;
25509;SDS011;13413;52.336;21.200;2023-04-24T17:07:34;8.00;;;5.40;;
25509;SDS011;13413;52.336;21.200;2023-04-24T17:10:28;11.30;;;4.70;;
25509;SDS011;13413;52.336;21.200;2023-04-24T17:13:22;9.70;;;4.80;;
25509;SDS011;13413;52.336;21.200;2023-04-24T17:16:16;11.10;;;4.10;;
25509;SDS011;13413;52.336;21.200;2023-04-24T17:19:10;8.10;;;5.20;;
25509;SDS011;13413;52.336;21.200;2023-04-24T17:22:04;12.40;;;5.90;;
25509;SDS011;13413;52.336;21.200;2023-04-24T17:24:58;8.00;;;5.50;;
25509;SDS011;13413;52.336;21.200;2023-04-24T17:27:52;31.30;;;8.50;;
25509;SDS011;13413;52.336;21.200;2023-04-24T17:30:46;21.60;;;8.20;;
25509;SDS011;13413;52.336;21.200;2023-04-24T17:33:41;11.60;;;5.40;;
25509;SDS011;13413;52.336;21.200;2023-04-24T17:36:35;18.40;;;5.70;;
25509;SDS011;13413;52.336;21.200;2023-04-24T17:42:23;7.10;;;5.30;;
25509;SDS011;13413;52.336;21.200;2023-04-24T17:45:18;5.50;;;3.80;;
25509;SDS011;13413;52.336;21.200;2023-04-24T17:57:00;7.10;;;5.20;;
25509;SDS011;13413;52.336;21.200;2023-04-24T17:59:54;8.70;;;5.10;;
25509;SDS011;13413;52.336;21.200;2023-04-24T18:02:49;9.40;;;5.20;;
25509;SDS011;13413;52.336;21.200;2023-04-24T18:05:42;12.60;;;5.00;;
25509;SDS011;13413;52.336;21.200;2023-04-24T18:08:37;9.90;;;4.70;;
25509;SDS011;13413;52.336;21.200;2023-04-24T18:11:30;24.70;;;6.20;;
25509;SDS011;13413;52.336;21.200;2023-04-24T18:14:24;11.90;;;5.60;;
25509;SDS011;13413;52.336;21.200;2023-04-24T18:17:18;9.70;;;5.80;;
25509;SDS011;13413;52.336;21.200;2023-04-24T18:20:13;30.40;;;14.60;;
25509;SDS011;13413;52.336;21.200;2023-04-24T18:23:08;16.40;;;9.00;;
25509;SDS011;13413;52.336;21.200;2023-04-24T18:26:03;15.10;;;6.70;;
25509;SDS011;13413;52.336;21.200;2023-04-24T18:28:56;9.50;;;6.80;;
25509;SDS011;13413;52.336;21.200;2023-04-24T18:31:50;16.10;;;6.80;;
25509;SDS011;13413;52.336;21.200;2023-04-24T18:34:45;15.70;;;8.80;;
25509;SDS011;13413;52.336;21.200;2023-04-24T18:37:39;16.00;;;11.90;;
25509;SDS011;13413;52.336;21.200;2023-04-24T18:40:34;14.40;;;10.50;;
25509;SDS011;13413;52.336;21.200;2023-04-24T18:43:28;12.30;;;9.00;;
25509;SDS011;13413;52.336;21.200;2023-04-24T18:46:21;16.00;;;8.90;;
25509;SDS011;13413;52.336;21.200;2023-04-24T18:49:16;17.40;;;13.70;;
25509;SDS011;13413;52.336;21.200;2023-04-24T18:52:09;19.70;;;16.40;;
25509;SDS011;13413;52.336;21.200;2023-04-24T18:55:04;21.00;;;17.70;;
25509;SDS011;13413;52.336;21.200;2023-04-24T18:58:00;25.40;;;19.10;;
25509;SDS011;13413;52.336;21.200;2023-04-24T19:00:54;27.20;;;15.20;;
25509;SDS011;13413;52.336;21.200;2023-04-24T19:03:48;14.90;;;8.90;;
25509;SDS011;13413;52.336;21.200;2023-04-24T19:06:41;13.00;;;9.40;;
25509;SDS011;13413;52.336;21.200;2023-04-24T19:09:38;13.00;;;7.90;;
25509;SDS011;13413;52.336;21.200;2023-04-24T19:12:33;12.40;;;9.40;;